Time;durP1;ratioP1;P1;durP2;ratioP2;P2;SDS_P1;SDS_P2;PMS_P1;PMS_P2;Temp;Humidity;BMP_temperature;BMP_pressure;BME280_temperature;BME280_humidity;BME280_pressure;Samples;Min_cycle;Max_cycle;Signal;HPM_P1;HPM_P2
2023/12/06 00:01:48;;;;;;;2.60;1.00;;;6.40;99.90;;;;;;5092656;28;20131;-73
2023/12/06 00:04:14;;;;;;;1.83;1.00;;;6.40;99.90;;;;;;5092738;28;20054;-74
2023/12/06 00:06:40;;;;;;;1.83;0.87;;;6.40;99.90;;;;;;5092926;28;20024;-74
2023/12/06 00:09:05;;;;;;;1.70;0.90;;;6.40;99.90;;;;;;5092419;28;20032;-73
2023/12/06 00:11:31;;;;;;;1.77;1.10;;;6.40;99.90;;;;;;5092633;28;20044;-74
2023/12/06 00:13:57;;;;;;;1.33;0.90;;;6.30;99.90;;;;;;5092077;28;20059;-74
2023/12/06 00:16:23;;;;;;;1.73;0.90;;;6.30;99.90;;;;;;5092545;28;20368;-73
2023/12/06 00:18:49;;;;;;;1.60;0.90;;;6.30;99.90;;;;;;5092393;28;20029;-74
2023/12/06 00:21:15;;;;;;;0.93;0.80;;;6.30;99.90;;;;;;5092603;28;20560;-74
2023/12/06 00:23:41;;;;;;;1.43;1.00;;;6.30;99.90;;;;;;5092408;28;20032;-74
2023/12/06 00:26:07;;;;;;;1.53;0.80;;;6.20;99.90;;;;;;5092499;28;20032;-73
2023/12/06 00:28:33;;;;;;;1.27;0.90;;;6.20;99.90;;;;;;5092485;28;20111;-73
2023/12/06 00:30:58;;;;;;;1.17;0.80;;;6.30;99.90;;;;;;5092334;28;20114;-74
2023/12/06 00:33:24;;;;;;;1.23;0.80;;;6.20;99.90;;;;;;5092386;28;20036;-73
2023/12/06 00:35:50;;;;;;;1.90;1.00;;;6.20;99.90;;;;;;5092282;28;20032;-73
2023/12/06 00:38:16;;;;;;;1.63;0.80;;;6.30;99.90;;;;;;5092122;28;20035;-74
2023/12/06 00:40:44;;;;;;;0.87;0.60;;;6.30;99.90;;;;;;5092365;28;20107;-74
2023/12/06 00:43:10;;;;;;;1.73;0.90;;;6.20;99.90;;;;;;5074117;28;20044;-73
2023/12/06 00:45:35;;;;;;;3.50;1.10;;;6.20;99.90;;;;;;5092045;28;20038;-73
2023/12/06 00:48:01;;;;;;;1.70;1.00;;;6.20;99.90;;;;;;5094312;28;20376;-73
2023/12/06 00:50:27;;;;;;;1.17;0.80;;;6.20;99.90;;;;;;5095930;28;20113;-73
2023/12/06 00:52:52;;;;;;;1.63;1.10;;;6.10;99.90;;;;;;5096057;28;20038;-73
2023/12/06 00:55:18;;;;;;;3.23;1.27;;;6.10;99.90;;;;;;5095686;28;20036;-74
2023/12/06 00:57:44;;;;;;;1.53;1.00;;;6.10;99.90;;;;;;5095864;28;20063;-74
2023/12/06 01:00:10;;;;;;;2.23;1.20;;;6.10;99.90;;;;;;5095862;28;20035;-74
2023/12/06 01:02:38;;;;;;;1.90;1.17;;;6.10;99.90;;;;;;5095615;28;20032;-73
2023/12/06 01:05:05;;;;;;;2.17;1.10;;;6.10;99.90;;;;;;5095344;28;20108;-74
2023/12/06 01:07:31;;;;;;;2.07;1.20;;;6.10;99.90;;;;;;5096019;28;20425;-74
2023/12/06 01:09:56;;;;;;;4.60;1.27;;;6.10;99.90;;;;;;5095370;28;20048;-73
2023/12/06 01:12:22;;;;;;;2.47;1.43;;;6.10;99.90;;;;;;5094568;28;20040;-74
2023/12/06 01:14:48;;;;;;;1.83;1.20;;;6.10;99.90;;;;;;5095659;28;20075;-73
2023/12/06 01:17:14;;;;;;;1.70;1.13;;;6.10;99.90;;;;;;5095460;28;20097;-73
2023/12/06 01:19:39;;;;;;;2.00;1.20;;;6.10;99.90;;;;;;5095484;28;20031;-73
2023/12/06 01:22:05;;;;;;;1.80;1.20;;;6.10;99.90;;;;;;5095150;28;20169;-73
2023/12/06 01:24:31;;;;;;;3.20;1.30;;;6.10;99.90;;;;;;5076909;28;20111;-74
2023/12/06 01:26:57;;;;;;;1.90;1.10;;;6.10;99.90;;;;;;5095077;28;20028;-74
2023/12/06 01:29:22;;;;;;;2.00;1.23;;;6.10;99.90;;;;;;5095101;28;20107;-73
2023/12/06 01:31:48;;;;;;;1.67;1.10;;;6.10;99.90;;;;;;5095126;28;20028;-74
2023/12/06 01:34:14;;;;;;;1.97;1.10;;;6.10;99.90;;;;;;5095231;28;20054;-73
2023/12/06 01:36:40;;;;;;;1.50;0.90;;;6.10;99.90;;;;;;5095052;28;20077;-73
2023/12/06 01:39:06;;;;;;;1.87;1.10;;;6.10;99.90;;;;;;5095173;28;20060;-74
2023/12/06 01:41:32;;;;;;;1.47;0.90;;;6.10;99.90;;;;;;5095056;28;20111;-74
2023/12/06 01:43:58;;;;;;;1.20;1.03;;;6.10;99.90;;;;;;5076566;28;20140;-73
2023/12/06 01:46:24;;;;;;;2.50;1.50;;;6.00;99.90;;;;;;5094739;28;20032;-74
2023/12/06 01:48:52;;;;;;;2.53;1.30;;;6.10;99.90;;;;;;5094432;28;20032;-74
2023/12/06 01:51:19;;;;;;;2.03;1.37;;;6.10;99.90;;;;;;5094237;28;20484;-74
2023/12/06 01:53:45;;;;;;;3.23;1.90;;;6.00;99.90;;;;;;5094523;28;20028;-74
2023/12/06 01:56:12;;;;;;;2.43;1.73;;;6.00;99.90;;;;;;5094645;28;20085;-74
2023/12/06 01:58:38;;;;;;;2.77;1.80;;;6.00;99.90;;;;;;5091854;28;20032;-73
2023/12/06 02:01:05;;;;;;;2.27;1.70;;;6.00;99.90;;;;;;5091804;28;20062;-74
2023/12/06 02:03:32;;;;;;;2.47;1.70;;;6.00;99.90;;;;;;5091879;28;20104;-74
2023/12/06 02:06:00;;;;;;;3.50;2.03;;;5.90;99.90;;;;;;5093928;28;20384;-74
2023/12/06 02:08:26;;;;;;;2.00;1.60;;;5.90;99.90;;;;;;5094344;28;20036;-73
2023/12/06 02:10:52;;;;;;;2.40;1.60;;;5.90;99.90;;;;;;5094085;28;20063;-73
2023/12/06 02:13:18;;;;;;;5.30;1.57;;;5.90;99.90;;;;;;5093982;28;20036;-73
2023/12/06 02:15:45;;;;;;;2.13;1.43;;;5.90;99.90;;;;;;5094040;28;20052;-74
2023/12/06 02:18:11;;;;;;;1.80;1.10;;;5.80;99.90;;;;;;5094259;28;20036;-74
2023/12/06 02:20:37;;;;;;;1.43;1.00;;;5.80;99.90;;;;;;5094241;28;20039;-74
2023/12/06 02:23:06;;;;;;;1.37;1.10;;;5.80;99.90;;;;;;5094302;28;20076;-74
2023/12/06 02:25:32;;;;;;;2.20;1.63;;;5.80;99.90;;;;;;5093967;28;20036;-73
2023/12/06 02:27:58;;;;;;;1.77;1.20;;;5.80;99.90;;;;;;5093627;28;20042;-74
2023/12/06 02:30:23;;;;;;;2.17;1.20;;;5.80;99.90;;;;;;5093799;28;20070;-73
2023/12/06 02:32:49;;;;;;;1.70;1.10;;;5.70;99.90;;;;;;5093519;28;20480;-74
2023/12/06 02:35:29;;;;;;;1.20;0.97;;;5.80;99.90;;;;;;5093110;28;20043;-73
2023/12/06 02:37:57;;;;;;;2.13;1.27;;;5.70;99.90;;;;;;5093879;28;20082;-74
2023/12/06 02:40:25;;;;;;;1.97;1.20;;;5.70;99.90;;;;;;5093870;28;20109;-73
2023/12/06 02:42:50;;;;;;;2.37;1.40;;;5.70;99.90;;;;;;5093577;28;20296;-73
2023/12/06 02:45:16;;;;;;;2.63;1.73;;;5.70;99.90;;;;;;5093533;28;20106;-73
2023/12/06 02:47:42;;;;;;;2.57;1.40;;;5.70;99.90;;;;;;5093409;28;20115;-74
2023/12/06 02:50:08;;;;;;;3.47;1.73;;;5.70;99.90;;;;;;5093439;28;20059;-74
2023/12/06 02:52:34;;;;;;;3.80;1.63;;;5.60;99.90;;;;;;5093496;28;20429;-74
2023/12/06 02:55:00;;;;;;;2.20;1.80;;;5.60;99.90;;;;;;5093380;28;20040;-74
2023/12/06 02:57:25;;;;;;;2.30;1.70;;;5.60;99.90;;;;;;5093668;28;20024;-74
2023/12/06 02:59:51;;;;;;;2.27;1.40;;;5.60;99.90;;;;;;5093541;28;20047;-74
2023/12/06 03:02:17;;;;;;;2.20;1.23;;;5.60;99.90;;;;;;5093412;28;20106;-74
2023/12/06 03:04:43;;;;;;;2.07;1.37;;;5.60;99.90;;;;;;5093445;28;20040;-74
2023/12/06 03:07:08;;;;;;;2.27;1.40;;;5.50;99.90;;;;;;5093276;28;20071;-73
2023/12/06 03:09:34;;;;;;;2.27;1.47;;;5.50;99.90;;;;;;5092494;28;20054;-73
2023/12/06 03:12:00;;;;;;;2.07;1.57;;;5.50;99.90;;;;;;5092993;28;20040;-74
2023/12/06 03:14:26;;;;;;;2.60;1.60;;;5.50;99.90;;;;;;5093093;28;20056;-73
2023/12/06 03:16:52;;;;;;;2.70;1.70;;;5.50;99.90;;;;;;5092973;28;20118;-73
2023/12/06 03:19:17;;;;;;;3.10;1.50;;;5.50;99.90;;;;;;5093034;28;20024;-74
2023/12/06 03:21:43;;;;;;;2.47;1.53;;;5.50;99.90;;;;;;5093379;28;20024;-74
2023/12/06 03:24:09;;;;;;;3.20;1.40;;;5.50;99.90;;;;;;5092940;28;20062;-73
2023/12/06 03:26:34;;;;;;;2.07;1.40;;;5.50;99.90;;;;;;5075142;28;20178;-73
2023/12/06 03:29:00;;;;;;;2.17;1.40;;;5.50;99.90;;;;;;5093362;28;20024;-74
2023/12/06 03:31:26;;;;;;;1.53;1.07;;;5.50;99.90;;;;;;5093081;28;20040;-73
2023/12/06 03:33:51;;;;;;;1.27;1.00;;;5.50;99.90;;;;;;5092703;28;20028;-74
2023/12/06 03:36:17;;;;;;;1.70;1.10;;;5.50;99.90;;;;;;5092890;28;20107;-73
2023/12/06 03:38:43;;;;;;;3.87;1.20;;;5.60;99.90;;;;;;5092823;28;20083;-74
2023/12/06 03:41:09;;;;;;;1.97;0.90;;;5.60;99.90;;;;;;5092705;28;20043;-72
2023/12/06 03:43:35;;;;;;;1.83;0.90;;;5.60;99.90;;;;;;5092782;28;20589;-73
2023/12/06 03:46:00;;;;;;;1.40;0.90;;;5.60;99.90;;;;;;5092964;28;20392;-74
2023/12/06 03:48:26;;;;;;;1.47;0.90;;;5.60;99.90;;;;;;5092726;28;20043;-74
2023/12/06 03:50:52;;;;;;;1.20;0.70;;;5.60;99.90;;;;;;5092054;28;20032;-73
2023/12/06 03:53:18;;;;;;;1.17;0.70;;;5.70;99.90;;;;;;5092534;28;20036;-73
2023/12/06 03:55:43;;;;;;;1.60;1.00;;;5.60;99.90;;;;;;5092298;28;20036;-73
2023/12/06 03:58:09;;;;;;;2.40;1.30;;;5.70;99.90;;;;;;5074497;28;20028;-74
2023/12/06 04:00:35;;;;;;;1.87;1.23;;;5.60;99.90;;;;;;5092804;28;20032;-74
2023/12/06 04:03:01;;;;;;;1.30;0.90;;;5.60;99.90;;;;;;5092592;28;20105;-73
2023/12/06 04:05:27;;;;;;;2.53;1.40;;;5.60;99.90;;;;;;5092309;28;20054;-74
2023/12/06 04:07:52;;;;;;;1.87;1.43;;;5.60;99.90;;;;;;5092355;28;20063;-74
2023/12/06 04:10:18;;;;;;;1.70;1.20;;;5.60;99.90;;;;;;5092468;28;20041;-73
2023/12/06 04:12:44;;;;;;;1.50;1.10;;;5.60;99.90;;;;;;5092823;28;20043;-74
2023/12/06 04:15:11;;;;;;;1.83;1.40;;;5.70;99.90;;;;;;5092578;28;20075;-74
2023/12/06 04:17:37;;;;;;;5.97;5.47;;;5.70;99.90;;;;;;5092629;28;20081;-74
2023/12/06 04:20:06;;;;;;;21.33;19.43;;;5.70;99.90;;;;;;5092803;28;20036;-73
2023/12/06 04:22:32;;;;;;;11.83;10.83;;;5.70;99.90;;;;;;5095644;28;20035;-74
2023/12/06 04:24:58;;;;;;;10.40;9.50;;;5.70;99.90;;;;;;5096276;28;20048;-73
2023/12/06 04:27:23;;;;;;;8.47;7.67;;;5.70;99.90;;;;;;5096690;28;20047;-73
2023/12/06 04:29:49;;;;;;;2.30;2.10;;;5.70;99.90;;;;;;5096142;28;20051;-72
2023/12/06 04:32:15;;;;;;;3.87;3.57;;;5.80;99.90;;;;;;5096353;28;20028;-74
2023/12/06 04:34:53;;;;;;;5.83;5.33;;;5.80;99.90;;;;;;5096353;28;20036;-73
2023/12/06 04:37:19;;;;;;;24.90;22.90;;;5.80;99.90;;;;;;5096070;28;20059;-73
2023/12/06 04:39:45;;;;;;;23.13;21.23;;;5.80;99.90;;;;;;5096415;28;20113;-74
2023/12/06 04:42:10;;;;;;;15.07;13.87;;;5.80;99.90;;;;;;5096367;28;20024;-74
2023/12/06 04:44:38;;;;;;;8.27;7.53;;;5.80;99.90;;;;;;5094912;28;20036;-73
2023/12/06 04:47:04;;;;;;;3.33;3.03;;;5.80;99.90;;;;;;5096228;28;20028;-73
2023/12/06 04:49:29;;;;;;;1.77;1.47;;;5.80;99.90;;;;;;5095783;28;20483;-74
2023/12/06 04:51:55;;;;;;;1.93;1.40;;;5.80;99.90;;;;;;5078088;28;20094;-74
2023/12/06 04:54:23;;;;;;;7.20;6.60;;;5.80;99.90;;;;;;5095716;28;20486;-73
2023/12/06 04:56:50;;;;;;;4.70;4.30;;;5.80;99.90;;;;;;5095934;28;20028;-73
2023/12/06 04:59:16;;;;;;;2.53;2.33;;;5.80;99.90;;;;;;5096048;28;20592;-74
2023/12/06 05:01:43;;;;;;;1.90;1.63;;;5.90;99.90;;;;;;5096207;28;20367;-73
2023/12/06 05:04:09;;;;;;;2.20;1.43;;;5.90;99.90;;;;;;5095650;28;20036;-74
2023/12/06 05:06:35;;;;;;;4.00;1.43;;;5.90;99.90;;;;;;5095389;28;20428;-73
2023/12/06 05:09:01;;;;;;;2.53;1.33;;;5.80;99.90;;;;;;5095658;28;20111;-73
2023/12/06 05:11:26;;;;;;;2.13;1.80;;;5.90;99.90;;;;;;5095738;28;20036;-74
2023/12/06 05:13:52;;;;;;;3.27;2.60;;;5.90;99.90;;;;;;5094732;28;20024;-74
2023/12/06 05:16:18;;;;;;;3.43;3.13;;;5.80;99.90;;;;;;5090708;28;20065;-73
2023/12/06 05:18:44;;;;;;;2.47;2.27;;;5.80;99.90;;;;;;5095418;28;20069;-74
2023/12/06 05:21:09;;;;;;;2.53;2.33;;;5.80;99.90;;;;;;5095684;28;20387;-73
2023/12/06 05:23:35;;;;;;;2.40;2.13;;;5.80;99.90;;;;;;5095443;28;20433;-73
2023/12/06 05:26:01;;;;;;;2.60;1.73;;;5.80;99.90;;;;;;5095483;28;20158;-74
2023/12/06 05:28:27;;;;;;;1.43;1.13;;;5.80;99.90;;;;;;5095275;28;20028;-74
2023/12/06 05:30:53;;;;;;;3.00;1.90;;;5.80;99.90;;;;;;5095118;28;20062;-76
2023/12/06 05:33:18;;;;;;;4.57;2.80;;;5.70;99.90;;;;;;5094240;28;20028;-73
2023/12/06 05:35:46;;;;;;;6.60;3.63;;;5.70;99.90;;;;;;5095224;28;20036;-73
2023/12/06 05:38:12;;;;;;;6.63;3.23;;;5.70;99.90;;;;;;5095452;28;20116;-74
2023/12/06 05:40:38;;;;;;;5.37;3.37;;;5.70;99.90;;;;;;5095177;28;20036;-74
2023/12/06 05:43:03;;;;;;;8.03;3.87;;;5.70;99.90;;;;;;5095040;28;20093;-73
2023/12/06 05:45:29;;;;;;;6.63;4.40;;;5.70;99.90;;;;;;5095021;28;20035;-74
2023/12/06 05:47:55;;;;;;;5.30;3.47;;;5.70;99.90;;;;;;5094759;28;20029;-73
2023/12/06 05:50:21;;;;;;;6.20;3.57;;;5.70;99.90;;;;;;5094743;28;20062;-73
2023/12/06 05:52:47;;;;;;;6.63;3.43;;;5.70;99.90;;;;;;5095118;28;20058;-74
2023/12/06 05:55:13;;;;;;;5.63;3.07;;;5.70;99.90;;;;;;5094704;28;20028;-74
2023/12/06 05:57:38;;;;;;;4.87;3.07;;;5.60;99.90;;;;;;5094662;28;20028;-74
2023/12/06 06:00:08;;;;;;;5.20;3.13;;;5.60;99.90;;;;;;5094254;28;20153;-74
2023/12/06 06:02:33;;;;;;;4.60;2.80;;;5.60;99.90;;;;;;5093503;28;20106;-72
2023/12/06 06:04:59;;;;;;;5.57;3.83;;;5.60;99.90;;;;;;5089939;28;20115;-74
2023/12/06 06:07:26;;;;;;;6.13;3.37;;;5.60;99.90;;;;;;5094548;28;20119;-74
2023/12/06 06:09:52;;;;;;;5.27;3.47;;;5.60;99.90;;;;;;5094551;28;20450;-74
2023/12/06 06:12:18;;;;;;;4.53;2.73;;;5.60;99.90;;;;;;5094358;28;20472;-74
2023/12/06 06:14:44;;;;;;;5.20;3.37;;;5.50;99.90;;;;;;5094178;28;20059;-74
2023/12/06 06:17:09;;;;;;;3.80;2.47;;;5.50;99.90;;;;;;5094353;28;20040;-74
2023/12/06 06:19:35;;;;;;;4.27;3.10;;;5.50;99.90;;;;;;5094266;28;20032;-74
2023/12/06 06:22:01;;;;;;;6.27;2.97;;;5.50;99.90;;;;;;5094339;28;20055;-73
2023/12/06 06:24:27;;;;;;;7.67;5.77;;;5.50;99.90;;;;;;5093944;28;20052;-73
2023/12/06 06:26:53;;;;;;;10.27;6.13;;;5.50;99.90;;;;;;5094200;28;20036;-74
2023/12/06 06:29:18;;;;;;;8.60;4.87;;;5.50;99.90;;;;;;5093930;28;20118;-73
2023/12/06 06:31:44;;;;;;;9.40;4.67;;;5.50;99.90;;;;;;5093664;28;20057;-74
2023/12/06 06:34:10;;;;;;;7.50;4.23;;;5.50;99.90;;;;;;5094086;28;20115;-74
2023/12/06 06:36:36;;;;;;;8.87;5.10;;;5.50;99.90;;;;;;5092824;28;20043;-73
2023/12/06 06:39:02;;;;;;;7.10;3.87;;;5.50;99.90;;;;;;5093837;28;20513;-73
2023/12/06 06:41:28;;;;;;;8.03;5.23;;;5.50;99.90;;;;;;5093960;28;20032;-74
2023/12/06 06:43:54;;;;;;;5.67;3.67;;;5.50;99.90;;;;;;5093778;28;20033;-74
2023/12/06 06:46:20;;;;;;;5.93;3.63;;;5.50;99.90;;;;;;5093643;28;20032;-74
2023/12/06 06:48:45;;;;;;;5.50;4.07;;;5.50;99.90;;;;;;5093486;28;20032;-74
2023/12/06 06:51:11;;;;;;;7.67;3.70;;;5.50;99.90;;;;;;5093393;28;20044;-73
2023/12/06 06:53:37;;;;;;;5.80;3.20;;;5.50;99.90;;;;;;5093597;28;20024;-74
2023/12/06 06:56:03;;;;;;;5.40;3.60;;;5.50;99.90;;;;;;5093401;28;20044;-74
2023/12/06 06:58:29;;;;;;;6.80;3.20;;;5.50;99.90;;;;;;5093412;28;20051;-74
2023/12/06 07:00:56;;;;;;;5.57;3.23;;;5.40;99.90;;;;;;5093411;28;20028;-75
2023/12/06 07:03:21;;;;;;;5.63;3.07;;;5.50;99.90;;;;;;5093057;28;20036;-75
2023/12/06 07:05:47;;;;;;;5.70;3.27;;;5.50;99.90;;;;;;5093163;28;20043;-75
2023/12/06 07:08:13;;;;;;;4.33;2.97;;;5.50;99.90;;;;;;5093158;28;20042;-71
2023/12/06 07:10:38;;;;;;;3.80;2.80;;;5.50;99.90;;;;;;5092907;28;20070;-69
2023/12/06 07:13:05;;;;;;;4.93;3.40;;;5.50;99.90;;;;;;5091935;28;20047;-70
2023/12/06 07:15:31;;;;;;;5.20;2.80;;;5.50;99.90;;;;;;5093346;28;20122;-68
2023/12/06 07:17:57;;;;;;;4.97;3.20;;;5.50;99.90;;;;;;5093179;28;20139;-67
2023/12/06 07:20:24;;;;;;;5.70;2.57;;;5.50;99.90;;;;;;5092796;28;20578;-68
2023/12/06 07:22:50;;;;;;;4.90;3.47;;;5.60;99.90;;;;;;5092961;28;20031;-68
2023/12/06 07:25:17;;;;;;;4.77;3.80;;;5.60;99.90;;;;;;5092785;28;20029;-71
2023/12/06 07:27:45;;;;;;;4.27;2.80;;;5.60;99.90;;;;;;5092566;28;20074;-66
2023/12/06 07:30:18;;;;;;;6.77;3.87;;;5.60;99.90;;;;;;5092856;28;20089;-69
2023/12/06 07:32:44;;;;;;;;;;;5.60;99.90;;;;;;5092638;28;20032;-71
2023/12/06 07:35:10;;;;;;;9.37;4.80;;;5.60;99.90;;;;;;5092137;28;20876;-69
2023/12/06 07:37:36;;;;;;;10.03;5.30;;;5.70;99.90;;;;;;5092863;28;20445;-70
2023/12/06 07:40:03;;;;;;;10.33;6.70;;;5.70;99.90;;;;;;5093012;28;20039;-70
2023/12/06 07:42:29;;;;;;;26.03;11.17;;;5.70;99.90;;;;;;5092597;28;20028;-69
2023/12/06 07:44:55;;;;;;;14.30;8.10;;;5.80;99.90;;;;;;5092693;28;20032;-69
2023/12/06 07:47:21;;;;;;;14.67;8.63;;;5.80;99.90;;;;;;5091433;28;20097;-70
2023/12/06 07:49:47;;;;;;;12.90;8.30;;;5.80;99.90;;;;;;5092791;28;20036;-69
2023/12/06 07:52:12;;;;;;;13.17;7.37;;;5.80;99.90;;;;;;5092845;28;20028;-69
2023/12/06 07:54:38;;;;;;;21.07;7.07;;;5.80;99.90;;;;;;5091415;28;20064;-71
2023/12/06 07:57:05;;;;;;;8.83;6.10;;;5.80;99.90;;;;;;5097060;28;20032;-72
2023/12/06 07:59:31;;;;;;;15.93;5.77;;;5.80;99.90;;;;;;5099626;28;20403;-70
2023/12/06 08:01:56;;;;;;;14.40;5.87;;;5.80;99.90;;;;;;5098897;28;20028;-71
2023/12/06 08:04:23;;;;;;;9.40;5.97;;;5.80;99.90;;;;;;5099261;28;20384;-69
2023/12/06 08:06:49;;;;;;;11.17;6.30;;;5.90;99.90;;;;;;5098979;28;20066;-69
2023/12/06 08:09:17;;;;;;;10.17;6.20;;;5.90;99.90;;;;;;5098972;28;20028;-74
2023/12/06 08:11:43;;;;;;;12.43;6.67;;;5.90;99.90;;;;;;5099109;28;20052;-74
2023/12/06 08:14:08;;;;;;;9.93;7.10;;;5.90;99.90;;;;;;5098952;28;20055;-73
2023/12/06 08:16:34;;;;;;;11.17;6.30;;;6.00;99.90;;;;;;5099019;28;20085;-71
2023/12/06 08:19:00;;;;;;;8.80;6.33;;;6.00;99.90;;;;;;5099251;28;20074;-71
2023/12/06 08:21:26;;;;;;;9.43;6.50;;;6.10;99.90;;;;;;5099370;28;20177;-71
2023/12/06 08:23:51;;;;;;;14.93;6.57;;;6.10;99.90;;;;;;5099249;28;20039;-70
2023/12/06 08:26:17;;;;;;;18.77;6.60;;;6.10;99.90;;;;;;5098875;28;20094;-70
2023/12/06 08:28:43;;;;;;;10.30;6.90;;;6.10;99.90;;;;;;5098288;28;20040;-70
2023/12/06 08:31:09;;;;;;;19.37;7.70;;;6.10;99.90;;;;;;5098799;28;20398;-71
2023/12/06 08:33:35;;;;;;;19.53;7.10;;;6.20;99.90;;;;;;5099176;28;20466;-71
2023/12/06 08:36:01;;;;;;;18.00;7.77;;;6.20;99.90;;;;;;5098512;28;20036;-70
2023/12/06 08:38:27;;;;;;;15.60;6.63;;;6.30;99.90;;;;;;5098479;28;20032;-71
2023/12/06 08:40:52;;;;;;;13.23;7.47;;;6.30;99.90;;;;;;5098639;28;20040;-70
2023/12/06 08:43:18;;;;;;;18.00;7.60;;;6.30;99.90;;;;;;5098827;28;20032;-71
2023/12/06 08:45:44;;;;;;;11.43;7.30;;;6.40;99.90;;;;;;5098187;28;20123;-71
2023/12/06 08:48:09;;;;;;;21.40;8.23;;;6.40;99.90;;;;;;5098617;28;20032;-71
2023/12/06 08:50:35;;;;;;;9.73;6.97;;;6.50;99.90;;;;;;5098471;28;20089;-71
2023/12/06 08:53:02;;;;;;;15.17;5.83;;;6.50;99.90;;;;;;5098411;28;20097;-70
2023/12/06 08:55:28;;;;;;;9.80;5.77;;;6.60;99.90;;;;;;5098348;28;20395;-71
2023/12/06 08:57:54;;;;;;;8.60;4.60;;;6.60;99.90;;;;;;5098891;28;20081;-69
2023/12/06 09:00:19;;;;;;;11.50;5.00;;;6.60;99.90;;;;;;5099064;28;20032;-71
2023/12/06 09:02:45;;;;;;;11.33;4.27;;;6.70;99.90;;;;;;5099075;28;20020;-71
2023/12/06 09:05:11;;;;;;;14.13;4.90;;;6.70;99.90;;;;;;5098894;28;20032;-71
2023/12/06 09:07:40;;;;;;;12.80;4.70;;;6.80;99.90;;;;;;5096115;28;20035;-71
2023/12/06 09:10:08;;;;;;;10.07;3.93;;;6.80;99.90;;;;;;5094695;28;20131;-71
2023/12/06 09:12:34;;;;;;;10.27;3.27;;;6.80;99.90;;;;;;5093975;28;20043;-71
2023/12/06 09:15:00;;;;;;;5.03;3.13;;;6.90;99.90;;;;;;5095002;28;20496;-71
2023/12/06 09:17:26;;;;;;;7.73;3.27;;;6.90;99.90;;;;;;5093096;28;20030;-71
2023/12/06 09:19:52;;;;;;;5.87;4.23;;;6.90;99.90;;;;;;5094569;28;20032;-70
2023/12/06 09:22:20;;;;;;;6.03;4.27;;;7.00;99.90;;;;;;5094523;28;20036;-71
2023/12/06 09:24:46;;;;;;;9.07;5.10;;;7.00;99.90;;;;;;5094554;28;20075;-71
2023/12/06 09:27:12;;;;;;;6.40;4.23;;;7.10;99.90;;;;;;5076024;28;20040;-71
2023/12/06 09:29:39;;;;;;;4.17;3.23;;;7.10;99.90;;;;;;5073766;28;20041;-71
2023/12/06 09:32:05;;;;;;;6.67;3.67;;;7.10;99.90;;;;;;5073938;28;20039;-70
2023/12/06 09:34:31;;;;;;;6.63;3.87;;;7.10;99.90;;;;;;5073645;28;20037;-71
2023/12/06 09:36:57;;;;;;;9.20;4.23;;;7.20;99.90;;;;;;5073353;28;20048;-70
2023/12/06 09:39:23;;;;;;;7.67;4.10;;;7.20;99.90;;;;;;5073071;28;20066;-70
2023/12/06 09:41:48;;;;;;;6.33;3.70;;;7.20;99.90;;;;;;5072834;28;20391;-70
2023/12/06 09:44:17;;;;;;;6.33;4.10;;;7.20;99.90;;;;;;5072446;28;20036;-70
2023/12/06 09:46:44;;;;;;;5.43;3.17;;;7.20;99.90;;;;;;5073187;28;20033;-70
2023/12/06 09:49:10;;;;;;;8.87;3.00;;;7.30;99.90;;;;;;5073030;28;20032;-70
2023/12/06 09:51:36;;;;;;;5.03;3.07;;;7.30;99.90;;;;;;5073144;28;20045;-70
2023/12/06 09:54:02;;;;;;;6.80;3.73;;;7.30;99.90;;;;;;5073586;28;20032;-70
2023/12/06 09:56:28;;;;;;;9.03;4.20;;;7.40;99.90;;;;;;5072635;28;20040;-70
2023/12/06 09:58:53;;;;;;;6.17;4.00;;;7.40;99.90;;;;;;5073366;28;20047;-70
2023/12/06 10:01:19;;;;;;;6.47;4.27;;;7.50;99.90;;;;;;5072085;28;20044;-70
2023/12/06 10:03:46;;;;;;;6.53;4.50;;;7.50;99.90;;;;;;5071511;28;20039;-70
2023/12/06 10:06:12;;;;;;;6.07;4.30;;;7.50;99.90;;;;;;5071467;28;20115;-70
2023/12/06 10:08:38;;;;;;;8.77;4.40;;;7.60;99.90;;;;;;5071769;28;20029;-70
2023/12/06 10:11:09;;;;;;;4.90;3.43;;;7.60;99.90;;;;;;5070886;28;20041;-70
2023/12/06 10:13:36;;;;;;;3.00;2.07;;;7.70;99.90;;;;;;5071870;28;20029;-70
2023/12/06 10:16:11;;;;;;;2.30;1.60;;;7.80;99.90;;;;;;5032227;28;20558;-70
2023/12/06 10:18:37;;;;;;;10.80;2.93;;;8.00;99.90;;;;;;5031636;28;20044;-70
2023/12/06 10:21:03;;;;;;;3.20;2.07;;;8.10;99.90;;;;;;5031074;28;20045;-70
2023/12/06 10:23:30;;;;;;;2.63;2.00;;;8.20;99.90;;;;;;5030477;28;20037;-70
2023/12/06 10:25:56;;;;;;;2.90;2.33;;;8.30;99.80;;;;;;5031347;28;20029;-70
2023/12/06 10:28:22;;;;;;;3.90;2.50;;;8.40;99.80;;;;;;5034037;28;20025;-70
2023/12/06 10:31:00;;;;;;;3.93;2.30;;;8.50;99.90;;;;;;5031841;28;20047;-71
2023/12/06 10:33:26;;;;;;;3.40;2.20;;;8.50;99.30;;;;;;5031840;28;20095;-71
2023/12/06 10:35:53;;;;;;;5.07;1.97;;;8.60;98.60;;;;;;5031990;28;20033;-71
2023/12/06 10:38:21;;;;;;;2.50;2.00;;;8.60;98.50;;;;;;5032481;28;20390;-71
2023/12/06 10:40:47;;;;;;;3.93;1.60;;;8.70;98.50;;;;;;5033630;28;20041;-71
2023/12/06 10:43:16;;;;;;;4.67;1.83;;;8.70;98.00;;;;;;5033580;28;20089;-71
2023/12/06 10:45:43;;;;;;;2.13;1.53;;;8.70;97.30;;;;;;5032479;28;20041;-71
2023/12/06 10:48:10;;;;;;;2.23;1.43;;;8.80;97.00;;;;;;5032586;28;20430;-71
2023/12/06 10:50:36;;;;;;;3.03;1.60;;;8.80;96.90;;;;;;5033181;28;20127;-70
2023/12/06 10:53:03;;;;;;;2.57;1.50;;;8.80;96.20;;;;;;5033851;28;20057;-71
2023/12/06 10:55:32;;;;;;;1.73;1.33;;;8.90;96.50;;;;;;5033441;28;20041;-71
2023/12/06 10:58:00;;;;;;;2.13;1.57;;;9.00;96.60;;;;;;5033611;28;20470;-69
2023/12/06 11:00:26;;;;;;;3.83;1.77;;;9.00;96.40;;;;;;5033373;28;20061;-71
2023/12/06 12:26:30;;;;;;;4.60;1.80;;;8.50;94.60;;;;;;5021862;28;20118;-74
2023/12/06 12:28:56;;;;;;;6.07;1.97;;;8.40;94.50;;;;;;5011931;28;20521;-74
2023/12/06 12:31:30;;;;;;;6.43;1.70;;;8.40;94.40;;;;;;5012306;28;20050;-74
2023/12/06 12:33:56;;;;;;;7.23;1.80;;;8.40;94.10;;;;;;5011431;28;20030;-73
2023/12/06 12:36:23;;;;;;;3.07;2.00;;;8.40;94.30;;;;;;5010379;28;20437;-72
2023/12/06 12:38:49;;;;;;;3.23;2.00;;;8.40;94.20;;;;;;5011741;28;20037;-73
2023/12/06 12:41:15;;;;;;;2.67;1.97;;;8.40;94.40;;;;;;5011451;28;20038;-74
2023/12/06 12:43:41;;;;;;;4.83;1.93;;;8.40;94.40;;;;;;5014980;28;20042;-70
2023/12/06 12:46:07;;;;;;;4.60;2.00;;;8.40;94.30;;;;;;5016239;28;20053;-73
2023/12/06 12:48:33;;;;;;;2.40;1.83;;;8.30;94.30;;;;;;5014590;28;20034;-73
2023/12/06 12:51:14;;;;;;;3.50;2.20;;;8.40;94.30;;;;;;5015594;28;20105;-74
2023/12/06 12:53:43;;;;;;;3.50;2.30;;;8.30;94.10;;;;;;4998031;28;20081;-74
2023/12/06 12:56:12;;;;;;;3.60;2.00;;;8.30;94.10;;;;;;5015104;28;20034;-71
2023/12/06 12:58:38;;;;;;;2.43;2.10;;;8.30;94.10;;;;;;5015641;28;20033;-74
2023/12/06 13:01:04;;;;;;;3.07;1.93;;;8.20;94.30;;;;;;5015477;28;20029;-74
2023/12/06 13:03:32;;;;;;;3.40;2.20;;;8.30;94.30;;;;;;5014769;28;20026;-73
2023/12/06 13:06:04;;;;;;;3.40;1.90;;;8.20;94.50;;;;;;5015304;28;20041;-71
2023/12/06 13:08:32;;;;;;;3.45;2.28;;;8.20;94.60;;;;;;5014063;28;20045;-73
2023/12/06 13:10:59;;;;;;;3.20;2.20;;;8.20;94.40;;;;;;5015411;28;20038;-73
2023/12/06 13:13:28;;;;;;;3.10;1.90;;;8.20;94.50;;;;;;5015646;28;20486;-72
2023/12/06 13:15:55;;;;;;;3.23;2.23;;;8.20;94.20;;;;;;5014962;28;20069;-72
2023/12/06 13:18:20;;;;;;;3.70;2.23;;;8.20;94.20;;;;;;5015318;28;20042;-73
2023/12/06 13:20:47;;;;;;;2.63;1.90;;;8.10;94.30;;;;;;5015069;28;20040;-70
2023/12/06 13:23:12;;;;;;;3.30;2.17;;;8.10;94.20;;;;;;4981491;28;20072;-71
2023/12/06 13:25:38;;;;;;;3.60;2.33;;;8.10;94.40;;;;;;5021308;28;20072;-70
2023/12/06 13:28:04;;;;;;;4.00;2.43;;;8.10;94.10;;;;;;5034546;28;20018;-71
2023/12/06 13:30:30;;;;;;;3.30;2.20;;;8.10;94.20;;;;;;5034861;28;20436;-71
2023/12/06 13:32:56;;;;;;;4.10;2.60;;;8.10;93.90;;;;;;5035109;28;20036;-71
2023/12/06 13:35:22;;;;;;;4.30;2.70;;;8.10;94.20;;;;;;5035125;28;20034;-71
2023/12/06 13:37:49;;;;;;;3.90;2.47;;;8.00;94.50;;;;;;5034332;28;20029;-71
2023/12/06 13:40:14;;;;;;;5.27;2.50;;;8.00;94.60;;;;;;5034980;28;20056;-71
2023/12/06 13:42:40;;;;;;;3.47;2.60;;;8.00;94.60;;;;;;5034864;28;20037;-71
2023/12/06 13:45:06;;;;;;;3.90;2.53;;;8.00;94.40;;;;;;5034477;28;20381;-72
2023/12/06 13:47:32;;;;;;;3.17;2.20;;;8.00;94.70;;;;;;5034696;28;20047;-73
2023/12/06 13:49:58;;;;;;;3.20;2.20;;;7.90;94.40;;;;;;5034746;28;20059;-72
2023/12/06 13:52:24;;;;;;;3.13;2.43;;;7.90;94.50;;;;;;5034918;28;20038;-72
2023/12/06 13:54:50;;;;;;;4.47;2.40;;;7.90;94.50;;;;;;5034020;28;20501;-72
2023/12/06 13:57:16;;;;;;;4.63;2.37;;;8.00;94.50;;;;;;5034243;28;20037;-74
2023/12/06 13:59:41;;;;;;;3.40;2.13;;;7.90;94.40;;;;;;5034434;28;20037;-72
2023/12/06 14:02:07;;;;;;;3.53;2.37;;;7.90;94.40;;;;;;5016390;28;20038;-73
2023/12/06 14:04:33;;;;;;;5.60;2.40;;;7.90;94.40;;;;;;5034332;28;20037;-71
2023/12/06 14:06:59;;;;;;;3.50;2.30;;;7.90;94.60;;;;;;5033872;28;20088;-72
2023/12/06 14:09:27;;;;;;;4.03;2.40;;;7.90;94.50;;;;;;5034017;28;20447;-73
2023/12/06 14:11:55;;;;;;;3.67;2.73;;;7.90;94.50;;;;;;5033926;28;20128;-72
2023/12/06 14:14:22;;;;;;;7.13;3.00;;;7.80;94.60;;;;;;5034149;28;20479;-73